Time;durP1;ratioP1;P1;durP2;ratioP2;P2;SDS_P1;SDS_P2;PMS_P1;PMS_P2;Temp;Humidity;BMP_temperature;BMP_pressure;BME280_temperature;BME280_humidity;BME280_pressure;Samples;Min_cycle;Max_cycle;Signal;HPM_P1;HPM_P2
2022/10/11 00:01:23;;;;;;;18.38;7.07;;;7.80;99.90;;;;;;5035543;28;20115;-62
2022/10/11 00:03:50;;;;;;;19.63;7.70;;;7.70;99.90;;;;;;5035081;28;20057;-61
2022/10/11 00:06:16;;;;;;;19.58;7.43;;;7.70;99.90;;;;;;5035041;28;20073;-63
2022/10/11 00:08:43;;;;;;;19.35;7.47;;;7.70;99.90;;;;;;5035234;28;20041;-63
2022/10/11 00:11:10;;;;;;;18.15;7.25;;;7.60;99.90;;;;;;5035111;28;20046;-63
2022/10/11 00:13:36;;;;;;;18.58;7.28;;;7.60;99.90;;;;;;5035298;28;20107;-66
2022/10/11 00:16:03;;;;;;;15.13;5.93;;;7.60;99.90;;;;;;5034557;28;20392;-62
2022/10/11 00:18:30;;;;;;;12.88;5.13;;;7.60;99.90;;;;;;5034698;28;20038;-62
2022/10/11 00:20:57;;;;;;;14.23;4.45;;;7.60;99.90;;;;;;5034204;28;20140;-62
2022/10/11 00:23:24;;;;;;;18.30;4.88;;;7.60;99.90;;;;;;5034881;28;20389;-61
2022/10/11 00:25:51;;;;;;;11.25;4.10;;;7.60;99.90;;;;;;5035012;28;20132;-62
2022/10/11 00:28:17;;;;;;;15.55;4.85;;;7.60;99.90;;;;;;5034526;28;20128;-63
2022/10/11 00:30:44;;;;;;;9.88;4.28;;;7.60;99.90;;;;;;5035046;28;20045;-60
2022/10/11 00:33:11;;;;;;;14.63;4.97;;;7.60;99.90;;;;;;5034766;28;20393;-64
2022/10/11 00:35:37;;;;;;;12.20;4.25;;;7.50;99.90;;;;;;5034186;28;20108;-63
2022/10/11 00:38:04;;;;;;;13.40;4.75;;;7.50;99.90;;;;;;5034298;28;20045;-61
2022/10/11 00:40:31;;;;;;;14.00;4.43;;;7.40;99.90;;;;;;5034756;28;20048;-62
2022/10/11 00:42:57;;;;;;;16.77;5.10;;;7.40;99.90;;;;;;5017277;28;20056;-62
2022/10/11 00:45:24;;;;;;;17.70;6.10;;;7.30;99.90;;;;;;5034108;28;20044;-64
2022/10/11 00:47:51;;;;;;;16.33;6.30;;;7.30;99.90;;;;;;5034520;28;20128;-62
2022/10/11 00:50:18;;;;;;;11.60;6.15;;;7.30;99.90;;;;;;5034371;28;20128;-61
2022/10/11 00:52:44;;;;;;;19.25;6.53;;;7.30;99.90;;;;;;5034349;28;20068;-63
2022/10/11 00:55:11;;;;;;;18.13;6.45;;;7.30;99.90;;;;;;5034219;28;20087;-62
2022/10/11 00:57:38;;;;;;;13.20;5.78;;;7.30;99.90;;;;;;5034470;28;20061;-62
2022/10/11 01:00:04;;;;;;;17.13;6.43;;;7.20;99.90;;;;;;5034669;28;20124;-62
2022/10/11 01:02:31;;;;;;;16.98;6.53;;;7.20;99.90;;;;;;5034145;28;20068;-64
2022/10/11 01:04:58;;;;;;;15.70;6.50;;;7.20;99.90;;;;;;5016264;28;20137;-63
2022/10/11 01:07:44;;;;;;;14.18;5.97;;;7.20;99.90;;;;;;5034348;28;20374;-62
2022/10/11 01:10:11;;;;;;;15.98;6.70;;;7.20;99.90;;;;;;5034262;28;20037;-62
2022/10/11 01:12:38;;;;;;;16.90;6.70;;;7.10;99.90;;;;;;5016223;28;20116;-61
2022/10/11 01:15:04;;;;;;;15.35;5.95;;;7.10;99.90;;;;;;5033822;28;20045;-60
2022/10/11 01:17:31;;;;;;;14.52;6.45;;;7.10;99.90;;;;;;5034218;28;20068;-62
2022/10/11 01:19:58;;;;;;;17.58;7.30;;;7.10;99.90;;;;;;5033758;28;20080;-60
2022/10/11 01:22:24;;;;;;;13.90;6.38;;;7.10;99.90;;;;;;5034395;28;20045;-63
2022/10/11 01:24:51;;;;;;;15.85;6.63;;;7.00;99.90;;;;;;5033602;28;20057;-63
2022/10/11 01:27:18;;;;;;;16.38;6.85;;;7.00;99.90;;;;;;5033654;28;20137;-61
2022/10/11 01:29:45;;;;;;;16.42;6.90;;;7.00;99.90;;;;;;5033314;28;20124;-63
2022/10/11 01:32:11;;;;;;;13.48;6.63;;;7.00;99.90;;;;;;5032813;28;20469;-60
2022/10/11 01:34:38;;;;;;;15.82;7.03;;;7.00;99.90;;;;;;5033404;28;20041;-62
2022/10/11 01:37:05;;;;;;;15.02;6.82;;;6.90;99.90;;;;;;5033985;28;20485;-61
2022/10/11 01:39:31;;;;;;;13.68;6.53;;;6.90;99.90;;;;;;5033290;28;20468;-60
2022/10/11 01:41:58;;;;;;;16.42;6.18;;;6.90;99.90;;;;;;5033485;28;20041;-63
2022/10/11 01:44:25;;;;;;;15.57;5.82;;;6.90;99.90;;;;;;5033433;28;20117;-62
2022/10/11 01:46:52;;;;;;;15.02;6.43;;;6.90;99.90;;;;;;5033587;28;20037;-61
2022/10/11 01:49:19;;;;;;;13.23;5.97;;;6.90;99.90;;;;;;5033676;28;20436;-61
2022/10/11 01:51:45;;;;;;;17.33;6.63;;;6.90;99.90;;;;;;5033187;28;20052;-62
2022/10/11 01:54:13;;;;;;;19.35;7.03;;;6.80;99.90;;;;;;5033593;28;20124;-61
2022/10/11 01:56:40;;;;;;;19.92;7.03;;;6.80;99.90;;;;;;5033198;28;20124;-60
2022/10/11 01:59:06;;;;;;;15.00;7.07;;;6.80;99.90;;;;;;5033848;28;20548;-62
2022/10/11 02:01:33;;;;;;;16.52;6.97;;;6.80;99.90;;;;;;5033602;28;20120;-61
2022/10/11 02:04:00;;;;;;;15.75;7.10;;;6.80;99.90;;;;;;5033381;28;20104;-61
2022/10/11 02:06:27;;;;;;;14.15;6.35;;;6.80;99.90;;;;;;5033146;28;20141;-61
2022/10/11 02:08:53;;;;;;;13.90;6.80;;;6.80;99.90;;;;;;5033158;28;20041;-60
2022/10/11 02:11:20;;;;;;;15.20;6.18;;;6.70;99.90;;;;;;5033339;28;20061;-63
2022/10/11 02:13:47;;;;;;;16.20;5.97;;;6.70;99.90;;;;;;5033044;28;20045;-63
2022/10/11 02:16:13;;;;;;;19.80;6.53;;;6.60;99.90;;;;;;5015758;28;20049;-60
2022/10/11 02:18:40;;;;;;;11.85;6.05;;;6.60;99.90;;;;;;5033766;28;20041;-63
2022/10/11 02:21:07;;;;;;;14.15;5.80;;;6.60;99.90;;;;;;5033142;28;20045;-59
2022/10/11 02:23:35;;;;;;;11.52;5.30;;;6.60;99.90;;;;;;5015983;28;20053;-61
2022/10/11 02:26:01;;;;;;;11.80;5.53;;;6.60;99.90;;;;;;5032696;28;20059;-63
2022/10/11 02:28:28;;;;;;;13.65;5.05;;;6.50;99.90;;;;;;5033032;28;20057;-63
2022/10/11 02:30:55;;;;;;;16.50;5.40;;;6.50;99.90;;;;;;5032971;28;20136;-60
2022/10/11 02:33:22;;;;;;;13.55;6.10;;;6.50;99.90;;;;;;5033016;28;20121;-59
2022/10/11 02:35:49;;;;;;;14.25;5.47;;;6.50;99.90;;;;;;5033245;28;20092;-60
2022/10/11 02:38:15;;;;;;;14.80;6.05;;;6.50;99.90;;;;;;5033482;28;20030;-60
2022/10/11 02:40:42;;;;;;;14.00;5.50;;;6.50;99.90;;;;;;5032977;28;20060;-61
2022/10/11 02:43:09;;;;;;;16.02;5.82;;;6.50;99.90;;;;;;5033501;28;20072;-61
2022/10/11 02:45:36;;;;;;;16.63;5.53;;;6.50;99.90;;;;;;5036958;28;20041;-62
2022/10/11 02:48:02;;;;;;;14.57;5.80;;;6.40;99.90;;;;;;5037002;28;20038;-62
2022/10/11 02:50:29;;;;;;;16.85;6.25;;;6.40;99.90;;;;;;5037165;28;20360;-61
2022/10/11 02:52:56;;;;;;;14.07;5.45;;;6.40;99.90;;;;;;5036969;28;20045;-62
2022/10/11 02:55:22;;;;;;;15.65;5.55;;;6.40;99.90;;;;;;5018517;28;20155;-63
2022/10/11 02:57:49;;;;;;;12.65;5.63;;;6.30;99.90;;;;;;5036299;28;20099;-60
2022/10/11 03:00:16;;;;;;;20.23;5.68;;;6.30;99.90;;;;;;5036198;28;20037;-61
2022/10/11 03:02:43;;;;;;;16.48;5.47;;;6.30;99.90;;;;;;5036845;28;20509;-61
2022/10/11 03:05:09;;;;;;;13.10;5.20;;;6.30;99.90;;;;;;5036627;28;20053;-61
2022/10/11 03:07:36;;;;;;;11.40;5.47;;;6.20;99.90;;;;;;5035937;28;20492;-60
2022/10/11 03:10:03;;;;;;;15.07;6.30;;;6.10;99.90;;;;;;5036055;28;20065;-61
2022/10/11 03:12:29;;;;;;;15.00;6.03;;;6.10;99.90;;;;;;5035934;28;20137;-62
2022/10/11 03:14:56;;;;;;;12.82;4.97;;;6.10;99.90;;;;;;5036024;28;20033;-61
2022/10/11 03:17:23;;;;;;;11.63;5.47;;;6.10;99.90;;;;;;5036325;28;20120;-60
2022/10/11 03:20:01;;;;;;;10.27;4.50;;;6.10;99.90;;;;;;5035839;28;20112;-61
2022/10/11 03:22:28;;;;;;;14.45;5.03;;;6.10;99.90;;;;;;5035797;28;20049;-61
2022/10/11 03:24:55;;;;;;;15.23;5.22;;;6.10;99.90;;;;;;5035424;28;20111;-61
2022/10/11 03:27:29;;;;;;;10.63;4.80;;;6.10;99.90;;;;;;5018441;28;20065;-61
2022/10/11 03:29:56;;;;;;;12.10;5.25;;;6.10;99.90;;;;;;5036248;28;20049;-61
2022/10/11 03:32:23;;;;;;;10.63;4.68;;;6.10;99.90;;;;;;5035511;28;20424;-63
2022/10/11 03:34:50;;;;;;;13.98;4.78;;;6.00;99.90;;;;;;5017744;28;20460;-61
2022/10/11 03:37:17;;;;;;;11.10;4.97;;;6.10;99.90;;;;;;5017675;28;20042;-61
2022/10/11 03:39:44;;;;;;;10.50;4.43;;;6.00;99.90;;;;;;5035347;28;20103;-61
2022/10/11 03:42:11;;;;;;;11.55;4.65;;;6.00;99.90;;;;;;5035986;28;20076;-62
2022/10/11 03:44:38;;;;;;;14.23;5.38;;;6.00;99.90;;;;;;5035527;28;20136;-59
2022/10/11 03:47:04;;;;;;;14.90;5.50;;;6.00;99.90;;;;;;5035790;28;20373;-60
2022/10/11 03:49:31;;;;;;;14.80;5.78;;;6.00;99.90;;;;;;5035338;28;20451;-60
2022/10/11 03:51:58;;;;;;;14.75;5.70;;;5.90;99.90;;;;;;5035124;28;20124;-60
2022/10/11 03:54:24;;;;;;;11.32;5.35;;;5.90;99.90;;;;;;5034804;28;20153;-62
2022/10/11 03:56:51;;;;;;;14.65;5.80;;;5.90;99.90;;;;;;5035099;28;20120;-61
2022/10/11 03:59:18;;;;;;;12.98;5.30;;;5.90;99.90;;;;;;5034973;28;20564;-62
2022/10/11 04:01:45;;;;;;;14.23;6.13;;;5.90;99.90;;;;;;5035117;28;20049;-59
2022/10/11 04:04:12;;;;;;;12.95;6.35;;;5.80;99.90;;;;;;5034810;28;20061;-60
2022/10/11 04:06:38;;;;;;;12.63;5.13;;;5.80;99.90;;;;;;5035032;28;20077;-60
2022/10/11 04:09:05;;;;;;;14.75;5.65;;;5.80;99.90;;;;;;5035405;28;20137;-61
2022/10/11 04:11:32;;;;;;;13.88;5.68;;;5.80;99.90;;;;;;5035470;28;20065;-61
2022/10/11 04:13:58;;;;;;;16.27;6.10;;;5.80;99.90;;;;;;5035174;28;20041;-61
2022/10/11 04:16:25;;;;;;;13.00;5.32;;;5.80;99.90;;;;;;5034754;28;20081;-61
2022/10/11 04:18:52;;;;;;;13.18;5.75;;;5.80;99.90;;;;;;5034584;28;20037;-62
2022/10/11 04:21:18;;;;;;;12.10;4.97;;;5.70;99.90;;;;;;5035017;28;20083;-62
2022/10/11 04:23:45;;;;;;;20.92;5.78;;;5.80;99.90;;;;;;5035082;28;20041;-63
2022/10/11 04:26:12;;;;;;;10.05;4.80;;;5.80;99.90;;;;;;5034996;28;20049;-64
2022/10/11 04:28:39;;;;;;;10.65;4.90;;;5.70;99.90;;;;;;5034799;28;20132;-61
2022/10/11 04:31:06;;;;;;;10.65;4.95;;;5.70;99.90;;;;;;5034600;28;20051;-62
2022/10/11 04:33:33;;;;;;;16.52;5.40;;;5.70;99.90;;;;;;5034695;28;20447;-60
2022/10/11 04:36:00;;;;;;;15.25;4.47;;;5.70;99.90;;;;;;5016643;28;20099;-62
2022/10/11 04:38:27;;;;;;;12.77;4.55;;;5.70;99.90;;;;;;5034268;28;20045;-60
2022/10/11 04:40:54;;;;;;;10.88;4.78;;;5.70;99.90;;;;;;5034306;28;20091;-61
2022/10/11 04:43:20;;;;;;;10.43;4.47;;;5.60;99.90;;;;;;5034217;28;20037;-61
2022/10/11 04:45:47;;;;;;;10.57;4.40;;;5.60;99.90;;;;;;5034765;28;20548;-60
2022/10/11 04:48:20;;;;;;;12.38;4.50;;;5.50;99.90;;;;;;5034148;28;20049;-61
2022/10/11 04:50:47;;;;;;;11.15;4.18;;;5.50;99.90;;;;;;5034004;28;20476;-62
2022/10/11 04:53:15;;;;;;;15.30;4.78;;;5.50;99.90;;;;;;5034636;28;20084;-61
2022/10/11 04:55:42;;;;;;;12.60;4.45;;;5.50;99.90;;;;;;5034074;28;20099;-63
2022/10/11 04:58:09;;;;;;;14.25;4.55;;;5.50;99.90;;;;;;5034081;28;20045;-59
2022/10/11 05:00:35;;;;;;;12.05;4.10;;;5.50;99.90;;;;;;5034100;28;20053;-63
2022/10/11 05:03:02;;;;;;;14.60;5.07;;;5.50;99.90;;;;;;5034350;28;20045;-62
2022/10/11 05:05:29;;;;;;;10.07;4.43;;;5.50;99.90;;;;;;5034289;28;20144;-63
2022/10/11 05:07:55;;;;;;;10.55;4.43;;;5.40;99.90;;;;;;5033889;28;20049;-64
2022/10/11 05:10:22;;;;;;;11.63;4.25;;;5.40;99.90;;;;;;5034538;28;20481;-60
2022/10/11 05:12:49;;;;;;;12.05;4.60;;;5.40;99.90;;;;;;5033846;28;20389;-60
2022/10/11 05:15:16;;;;;;;11.57;4.63;;;5.40;99.90;;;;;;5033856;28;20065;-62
2022/10/11 05:17:42;;;;;;;13.20;4.65;;;5.40;99.90;;;;;;5034117;28;20037;-64
2022/10/11 05:20:09;;;;;;;12.35;4.75;;;5.40;99.90;;;;;;5033747;28;20072;-61
2022/10/11 05:22:36;;;;;;;11.88;4.90;;;5.30;99.90;;;;;;5033734;28;20124;-61
2022/10/11 05:25:02;;;;;;;12.38;5.20;;;5.30;99.90;;;;;;5033401;28;20100;-61
2022/10/11 05:27:29;;;;;;;11.85;4.72;;;5.30;99.90;;;;;;5034304;28;20056;-62
2022/10/11 05:29:56;;;;;;;12.40;5.70;;;5.30;99.90;;;;;;5034276;28;20433;-61
2022/10/11 05:32:23;;;;;;;11.10;4.78;;;5.30;99.90;;;;;;5033376;28;20440;-60
2022/10/11 05:34:53;;;;;;;8.93;4.50;;;5.30;99.90;;;;;;5033377;28;20042;-62
2022/10/11 05:37:20;;;;;;;11.65;5.10;;;5.30;99.90;;;;;;5033416;28;20388;-62
2022/10/11 05:39:46;;;;;;;11.15;5.07;;;5.30;99.90;;;;;;5033434;28;20041;-64
2022/10/11 05:42:13;;;;;;;11.98;4.50;;;5.30;99.90;;;;;;5033267;28;20051;-61
2022/10/11 05:44:40;;;;;;;10.73;4.55;;;5.30;99.90;;;;;;5033173;28;20564;-63
2022/10/11 05:47:06;;;;;;;9.77;4.82;;;5.30;99.90;;;;;;5033471;28;20048;-61
2022/10/11 05:49:33;;;;;;;11.07;4.85;;;5.30;99.90;;;;;;5033875;28;20107;-62
2022/10/11 05:52:00;;;;;;;9.98;4.53;;;5.30;99.90;;;;;;5033109;28;20080;-62
2022/10/11 05:54:27;;;;;;;11.77;4.85;;;5.30;99.90;;;;;;5033257;28;20108;-63
2022/10/11 05:56:53;;;;;;;9.65;4.60;;;5.30;99.90;;;;;;5033145;28;20128;-63
2022/10/11 05:59:20;;;;;;;13.50;5.25;;;5.20;99.90;;;;;;5033382;28;20382;-61
2022/10/11 06:01:47;;;;;;;12.13;5.63;;;5.20;99.90;;;;;;5033320;28;20060;-66
2022/10/11 06:04:15;;;;;;;14.52;4.85;;;5.20;99.90;;;;;;5032926;28;20047;-61
2022/10/11 06:06:42;;;;;;;15.48;6.05;;;5.20;99.90;;;;;;5033079;28;20069;-62
2022/10/11 06:09:08;;;;;;;12.23;5.20;;;5.20;99.90;;;;;;5033351;28;20432;-62
2022/10/11 06:11:35;;;;;;;11.80;4.85;;;5.20;99.90;;;;;;5033197;28;20049;-61
2022/10/11 06:14:02;;;;;;;11.75;4.90;;;5.20;99.90;;;;;;5015649;28;20124;-61
2022/10/11 06:16:28;;;;;;;13.77;5.40;;;5.20;99.90;;;;;;5033652;28;20056;-61
2022/10/11 06:18:55;;;;;;;10.93;4.53;;;5.20;99.90;;;;;;5034813;28;20042;-60
2022/10/11 06:21:22;;;;;;;12.30;4.90;;;5.20;99.90;;;;;;5036697;28;20448;-60
2022/10/11 06:23:49;;;;;;;11.45;4.85;;;5.20;99.90;;;;;;5036914;28;20045;-61
2022/10/11 06:26:16;;;;;;;11.13;5.13;;;5.20;99.90;;;;;;5036353;28;20140;-61
2022/10/11 06:28:43;;;;;;;11.02;5.65;;;5.20;99.90;;;;;;5032767;28;20519;-62
2022/10/11 06:31:09;;;;;;;13.27;5.70;;;5.20;99.90;;;;;;5035143;28;20481;-59
2022/10/11 06:33:36;;;;;;;16.00;5.20;;;5.20;99.90;;;;;;5035965;28;20038;-61
2022/10/11 06:36:03;;;;;;;14.07;5.05;;;5.20;99.90;;;;;;5036259;28;20033;-63
2022/10/11 06:38:30;;;;;;;12.15;5.60;;;5.20;99.90;;;;;;5035673;28;20037;-65
2022/10/11 06:40:57;;;;;;;11.02;5.30;;;5.20;99.90;;;;;;5036238;28;20041;-61
2022/10/11 06:43:24;;;;;;;9.93;4.82;;;5.20;99.90;;;;;;5035835;28;20045;-63
2022/10/11 06:45:50;;;;;;;11.75;4.63;;;5.20;99.90;;;;;;5036285;28;20125;-63
2022/10/11 06:48:17;;;;;;;13.07;5.10;;;5.20;99.90;;;;;;5035685;28;20197;-63
2022/10/11 06:50:44;;;;;;;13.90;5.13;;;5.30;99.90;;;;;;5018077;28;20099;-60
2022/10/11 06:53:26;;;;;;;14.23;5.30;;;5.30;99.90;;;;;;5018000;28;20045;-62
2022/10/11 06:55:52;;;;;;;15.35;5.15;;;5.30;99.90;;;;;;5035833;28;20445;-64
2022/10/11 06:58:19;;;;;;;20.25;6.43;;;5.30;99.90;;;;;;5035711;28;20042;-62
2022/10/11 07:00:46;;;;;;;16.88;5.70;;;5.30;99.90;;;;;;5035983;28;20041;-62
2022/10/11 07:03:13;;;;;;;19.40;6.85;;;5.40;99.90;;;;;;5035925;28;20038;-63
2022/10/11 07:05:39;;;;;;;16.52;6.05;;;5.40;99.90;;;;;;5035120;28;20049;-61
2022/10/11 07:08:06;;;;;;;22.38;6.00;;;5.40;99.90;;;;;;5035541;28;20128;-61
2022/10/11 07:10:33;;;;;;;19.38;5.65;;;5.40;99.90;;;;;;5036185;28;20400;-60
2022/10/11 07:12:59;;;;;;;14.63;5.95;;;5.50;99.90;;;;;;5035770;28;20065;-61
2022/10/11 07:15:26;;;;;;;14.63;5.90;;;5.50;99.90;;;;;;5035718;28;20099;-60
2022/10/11 07:17:53;;;;;;;17.25;5.60;;;5.50;99.90;;;;;;5036057;28;20045;-60
2022/10/11 07:20:20;;;;;;;19.05;6.22;;;5.60;99.90;;;;;;5033748;28;20073;-57
2022/10/11 07:22:47;;;;;;;13.40;5.65;;;5.60;99.90;;;;;;5035259;28;20108;-58
2022/10/11 07:25:13;;;;;;;14.55;5.60;;;5.70;99.90;;;;;;5035187;28;20088;-60
2022/10/11 07:27:40;;;;;;;15.52;5.75;;;5.80;99.90;;;;;;5017547;28;20092;-61
2022/10/11 07:30:07;;;;;;;13.95;5.65;;;5.80;99.90;;;;;;5034010;28;20554;-61
2022/10/11 07:32:33;;;;;;;15.15;6.03;;;5.80;99.90;;;;;;5035188;28;20419;-60
2022/10/11 07:35:00;;;;;;;15.73;5.55;;;5.80;99.90;;;;;;5035353;28;20068;-63
2022/10/11 07:37:27;;;;;;;13.85;5.15;;;5.90;99.90;;;;;;5035020;28;20046;-63
2022/10/11 07:39:54;;;;;;;17.65;5.97;;;5.90;99.90;;;;;;5035178;28;20417;-61
2022/10/11 07:42:21;;;;;;;13.82;5.68;;;5.90;99.90;;;;;;5035119;28;20108;-61
2022/10/11 07:44:48;;;;;;;15.18;5.47;;;6.00;99.90;;;;;;5034961;28;20049;-60
2022/10/11 07:47:14;;;;;;;18.35;5.78;;;6.00;99.90;;;;;;5034933;28;20442;-62
2022/10/11 07:49:41;;;;;;;18.15;5.38;;;6.00;99.90;;;;;;5034870;28;20041;-62
2022/10/11 07:52:08;;;;;;;17.88;5.43;;;6.10;99.90;;;;;;5034686;28;20037;-62
2022/10/11 07:54:35;;;;;;;13.02;4.72;;;6.20;99.90;;;;;;5017025;28;20092;-63
2022/10/11 07:57:01;;;;;;;15.07;5.68;;;6.20;99.90;;;;;;5034984;28;20496;-60
2022/10/11 07:59:28;;;;;;;15.63;5.40;;;6.30;99.90;;;;;;5034794;28;20116;-63
2022/10/11 08:01:55;;;;;;;14.77;5.55;;;6.30;99.90;;;;;;5035028;28;20041;-62
2022/10/11 08:04:22;;;;;;;13.88;5.15;;;6.40;99.90;;;;;;5034405;28;20045;-61
2022/10/11 08:06:48;;;;;;;14.35;5.43;;;6.50;99.90;;;;;;5034645;28;20251;-60
2022/10/11 08:09:19;;;;;;;18.05;5.72;;;6.60;99.90;;;;;;5034486;28;20045;-62
2022/10/11 08:11:45;;;;;;;14.40;5.10;;;6.70;99.90;;;;;;5034645;28;20484;-61
2022/10/11 08:14:12;;;;;;;19.45;4.90;;;6.70;99.90;;;;;;5034374;28;20034;-60
2022/10/11 08:16:39;;;;;;;13.18;3.92;;;6.80;99.90;;;;;;5034709;28;20095;-60
2022/10/11 08:19:06;;;;;;;18.13;4.47;;;6.80;99.90;;;;;;5034188;28;20048;-63
2022/10/11 08:21:33;;;;;;;18.45;4.93;;;6.90;99.90;;;;;;5017069;28;20074;-63
2022/10/11 08:24:00;;;;;;;18.27;4.75;;;7.00;99.90;;;;;;5034133;28;20045;-63
2022/10/11 08:26:27;;;;;;;16.60;5.65;;;7.10;99.90;;;;;;5034102;28;20057;-64
2022/10/11 08:29:13;;;;;;;15.70;4.88;;;7.10;99.90;;;;;;5033026;28;20507;-62
2022/10/11 08:31:39;;;;;;;17.48;4.13;;;7.20;99.90;;;;;;5033280;28;20056;-61
2022/10/11 08:34:06;;;;;;;21.00;5.18;;;7.30;99.90;;;;;;5034667;28;20532;-63
2022/10/11 08:36:33;;;;;;;17.38;5.15;;;7.40;99.90;;;;;;5034110;28;20049;-62
2022/10/11 08:38:59;;;;;;;19.50;4.85;;;7.40;99.90;;;;;;5033360;28;20068;-60
2022/10/11 08:41:26;;;;;;;16.00;4.18;;;7.40;99.90;;;;;;5034193;28;20400;-58
2022/10/11 08:43:53;;;;;;;14.18;4.47;;;7.50;99.90;;;;;;5033909;28;20053;-61
2022/10/11 08:46:19;;;;;;;16.60;4.10;;;7.60;99.90;;;;;;5034239;28;20457;-61
2022/10/11 08:48:46;;;;;;;17.70;4.85;;;7.70;99.90;;;;;;5034784;28;20077;-65
2022/10/11 08:51:13;;;;;;;16.02;5.30;;;7.70;99.90;;;;;;5017136;28;20449;-61
2022/10/11 08:53:40;;;;;;;20.10;5.93;;;7.80;99.90;;;;;;5033295;28;20048;-59
2022/10/11 08:56:06;;;;;;;20.58;5.50;;;7.80;99.90;;;;;;5032753;28;20053;-62
2022/10/11 08:58:34;;;;;;;18.75;5.03;;;7.90;99.90;;;;;;5032720;28;20112;-62
2022/10/11 09:01:01;;;;;;;20.15;5.47;;;8.00;99.90;;;;;;5032780;28;20156;-60
2022/10/11 09:03:28;;;;;;;21.83;5.53;;;8.00;99.90;;;;;;5015126;28;20128;-62
2022/10/11 09:05:54;;;;;;;20.55;5.03;;;8.10;99.90;;;;;;5014961;28;20140;-60
2022/10/11 09:08:21;;;;;;;16.10;4.78;;;8.20;99.90;;;;;;5033083;28;20447;-62
2022/10/11 09:10:48;;;;;;;18.35;5.35;;;8.30;99.90;;;;;;5033999;28;20128;-63
2022/10/11 09:13:15;;;;;;;34.08;6.15;;;8.40;99.90;;;;;;5033638;28;20042;-62
2022/10/11 09:15:41;;;;;;;19.20;5.53;;;8.40;99.90;;;;;;5034167;28;20053;-61
2022/10/11 09:18:08;;;;;;;19.88;5.45;;;8.50;99.90;;;;;;5034034;28;20073;-61
2022/10/11 09:20:35;;;;;;;22.35;5.78;;;8.50;99.90;;;;;;5033765;28;20037;-62
2022/10/11 09:23:02;;;;;;;16.55;5.13;;;8.60;99.90;;;;;;5033777;28;20041;-64
2022/10/11 09:25:29;;;;;;;19.52;5.93;;;8.70;99.90;;;;;;5033168;28;20136;-64
2022/10/11 09:27:56;;;;;;;18.95;6.00;;;8.70;99.90;;;;;;5033538;28;20042;-61
2022/10/11 09:30:29;;;;;;;22.60;5.72;;;8.80;99.90;;;;;;5034150;28;20125;-62
2022/10/11 09:32:55;;;;;;;18.80;5.47;;;8.80;99.90;;;;;;5033330;28;20046;-63
2022/10/11 09:35:22;;;;;;;19.52;5.40;;;8.90;99.90;;;;;;5033418;28;20091;-61
2022/10/11 09:37:49;;;;;;;22.25;5.25;;;9.00;99.90;;;;;;5033711;28;20041;-62
2022/10/11 09:40:16;;;;;;;18.10;4.88;;;9.00;99.90;;;;;;5016113;28;20120;-61
2022/10/11 09:42:42;;;;;;;21.65;5.22;;;9.10;99.90;;;;;;5033691;28;20073;-63
2022/10/11 09:45:09;;;;;;;18.67;4.85;;;9.10;99.90;;;;;;5033331;28;20444;-60
2022/10/11 09:47:36;;;;;;;19.50;5.20;;;9.20;99.90;;;;;;5033548;28;20099;-60
2022/10/11 09:50:02;;;;;;;23.15;5.50;;;9.20;99.90;;;;;;5033506;28;20045;-62
2022/10/11 09:52:29;;;;;;;16.35;5.20;;;9.30;99.90;;;;;;5033350;28;20046;-62
2022/10/11 09:54:56;;;;;;;18.00;5.05;;;9.40;99.90;;;;;;5036697;28;20447;-60
2022/10/11 09:57:23;;;;;;;17.88;5.15;;;9.40;99.90;;;;;;5037440;28;20041;-64
2022/10/11 09:59:50;;;;;;;21.98;4.78;;;9.50;99.90;;;;;;5037685;28;20107;-62
2022/10/11 10:02:17;;;;;;;18.90;4.93;;;9.60;99.90;;;;;;5037538;28;20034;-64
2022/10/11 10:04:43;;;;;;;19.17;4.60;;;9.60;99.90;;;;;;5037653;28;20132;-63
2022/10/11 10:07:11;;;;;;;17.45;4.45;;;9.70;99.90;;;;;;5037469;28;20042;-61
2022/10/11 10:09:38;;;;;;;19.52;4.40;;;9.80;99.90;;;;;;5037243;28;20144;-61
2022/10/11 10:12:05;;;;;;;21.40;4.70;;;9.80;99.90;;;;;;5037255;28;20492;-61
2022/10/11 10:14:32;;;;;;;121.05;13.55;;;9.80;99.90;;;;;;5037631;28;20046;-65
2022/10/11 10:16:59;;;;;;;28.92;5.07;;;9.90;99.90;;;;;;5037509;28;20140;-62
2022/10/11 10:19:25;;;;;;;17.98;4.30;;;10.00;99.90;;;;;;5037316;28;20072;-65
2022/10/11 10:21:52;;;;;;;19.27;4.90;;;10.10;99.90;;;;;;5037354;28;20042;-64
2022/10/11 10:24:19;;;;;;;21.60;3.97;;;10.20;99.90;;;;;;5036678;28;20065;-63
2022/10/11 10:26:46;;;;;;;63.03;8.32;;;10.20;99.90;;;;;;5036463;28;20416;-63
2022/10/11 10:29:14;;;;;;;21.77;4.47;;;10.20;99.90;;;;;;5037300;28;20128;-62
2022/10/11 10:31:41;;;;;;;23.42;3.80;;;10.30;99.90;;;;;;5036870;28;20091;-63
2022/10/11 10:34:28;;;;;;;19.15;4.55;;;10.30;99.90;;;;;;5036802;28;20045;-63
2022/10/11 10:36:55;;;;;;;15.68;4.40;;;10.40;99.90;;;;;;5037059;28;20136;-63
2022/10/11 10:39:21;;;;;;;59.72;8.15;;;10.40;99.90;;;;;;5036648;28;20038;-62
2022/10/11 10:41:48;;;;;;;208.40;21.52;;;10.50;99.90;;;;;;5037090;28;20099;-62
2022/10/11 10:44:15;;;;;;;43.83;7.30;;;10.50;99.90;;;;;;5036486;28;20073;-62
2022/10/11 10:46:42;;;;;;;19.73;4.53;;;10.60;99.90;;;;;;5036364;28;20552;-64
2022/10/11 10:49:10;;;;;;;19.40;4.50;;;10.60;99.90;;;;;;5036907;28;20047;-63
2022/10/11 10:52:01;;;;;;;58.58;7.72;;;10.70;99.90;;;;;;5036401;28;20393;-61
2022/10/11 10:54:28;;;;;;;23.67;4.90;;;10.70;99.90;;;;;;5036251;28;20080;-62
2022/10/11 10:56:55;;;;;;;15.18;3.95;;;10.80;99.90;;;;;;5018728;28;20436;-63
2022/10/11 10:59:22;;;;;;;15.85;3.92;;;10.80;99.90;;;;;;5036510;28;20084;-62
2022/10/11 11:01:48;;;;;;;19.42;3.70;;;10.90;99.90;;;;;;5036018;28;20189;-61
2022/10/11 11:04:15;;;;;;;20.33;4.00;;;11.00;99.90;;;;;;5035866;28;20041;-63
2022/10/11 11:06:42;;;;;;;13.82;3.13;;;11.10;99.90;;;;;;5036603;28;20128;-63
2022/10/11 11:09:08;;;;;;;17.40;3.45;;;11.20;99.90;;;;;;5036073;28;20435;-62
2022/10/11 11:11:35;;;;;;;16.88;3.65;;;11.20;99.90;;;;;;5035894;28;20489;-64
2022/10/11 11:14:02;;;;;;;14.40;2.97;;;11.30;99.90;;;;;;5035956;28;20065;-65
2022/10/11 11:16:29;;;;;;;12.98;3.80;;;11.30;99.90;;;;;;5035816;28;20045;-62
2022/10/11 11:18:55;;;;;;;17.40;4.05;;;11.30;99.90;;;;;;5035741;28;20424;-64
2022/10/11 11:21:22;;;;;;;12.45;3.03;;;11.40;99.90;;;;;;5036239;28;20120;-63
2022/10/11 11:23:49;;;;;;;13.70;3.17;;;11.40;99.90;;;;;;5035789;28;20524;-63
2022/10/11 11:26:15;;;;;;;14.50;3.40;;;11.40;99.90;;;;;;5035971;28;20053;-62
2022/10/11 11:28:42;;;;;;;13.70;2.70;;;11.50;99.70;;;;;;5035537;28;20049;-61
2022/10/11 11:31:09;;;;;;;16.67;3.83;;;11.50;99.90;;;;;;5036195;28;20439;-61
2022/10/11 11:33:36;;;;;;;15.23;3.30;;;11.50;99.90;;;;;;5035917;28;20465;-63
2022/10/11 11:36:03;;;;;;;16.52;2.97;;;11.50;99.90;;;;;;5034135;28;20103;-62
2022/10/11 11:38:30;;;;;;;14.27;3.20;;;11.60;99.60;;;;;;5035463;28;20049;-62
2022/10/11 11:40:57;;;;;;;10.80;2.55;;;11.70;99.40;;;;;;5035217;28;20044;-61
2022/10/11 11:43:24;;;;;;;15.90;3.35;;;11.70;99.40;;;;;;5035636;28;20049;-62
2022/10/11 11:45:50;;;;;;;18.38;3.90;;;11.90;99.50;;;;;;5035811;28;20041;-63
2022/10/11 11:48:17;;;;;;;14.82;3.10;;;11.90;99.10;;;;;;5035734;28;20378;-64
2022/10/11 11:50:44;;;;;;;21.45;3.88;;;12.00;99.40;;;;;;5035302;28;20042;-61
2022/10/11 11:53:11;;;;;;;20.30;3.30;;;12.00;99.50;;;;;;5035252;28;20534;-62
2022/10/11 11:55:37;;;;;;;18.73;3.40;;;12.00;98.90;;;;;;5035124;28;20152;-61
2022/10/11 11:58:04;;;;;;;14.18;2.83;;;12.00;99.10;;;;;;5035005;28;20441;-64
2022/10/11 12:00:32;;;;;;;14.30;3.50;;;12.00;99.30;;;;;;5035637;28;20048;-64
2022/10/11 12:02:59;;;;;;;13.25;3.40;;;12.00;99.40;;;;;;5034956;28;20511;-64
2022/10/11 12:05:26;;;;;;;14.77;3.05;;;12.00;99.40;;;;;;5035144;28;20538;-61
2022/10/11 12:07:53;;;;;;;18.73;4.15;;;12.10;99.00;;;;;;5035320;28;20068;-61
2022/10/11 12:10:20;;;;;;;16.30;3.30;;;12.20;98.90;;;;;;5035276;28;20096;-63
2022/10/11 12:12:47;;;;;;;58.78;6.43;;;12.30;98.90;;;;;;5035347;28;20048;-64
2022/10/11 12:15:13;;;;;;;19.75;4.13;;;12.30;99.00;;;;;;5034457;28;20037;-63
2022/10/11 12:17:40;;;;;;;18.73;3.55;;;12.40;99.10;;;;;;5033965;28;20042;-64
2022/10/11 12:20:07;;;;;;;37.85;5.72;;;12.40;99.10;;;;;;5034685;28;20034;-62
2022/10/11 12:22:34;;;;;;;23.45;3.85;;;12.40;99.20;;;;;;5034699;28;20037;-63
2022/10/11 12:25:01;;;;;;;16.10;3.47;;;12.40;99.00;;;;;;5034933;28;20104;-62
2022/10/11 12:27:27;;;;;;;13.43;3.42;;;12.40;98.70;;;;;;5034885;28;20429;-65
2022/10/11 12:29:54;;;;;;;16.15;2.92;;;12.40;98.80;;;;;;5034786;28;20041;-61
2022/10/11 12:32:21;;;;;;;15.00;3.05;;;12.40;98.50;;;;;;5034342;28;20461;-64
2022/10/11 12:34:48;;;;;;;15.88;3.10;;;12.50;98.10;;;;;;5034536;28;20053;-61
2022/10/11 12:37:15;;;;;;;13.98;3.20;;;12.60;98.10;;;;;;5034363;28;20037;-63
2022/10/11 12:39:41;;;;;;;16.20;3.08;;;12.70;97.90;;;;;;5034655;28;20041;-63
2022/10/11 12:42:08;;;;;;;12.73;2.80;;;12.60;97.50;;;;;;5034249;28;20056;-62
2022/10/11 12:44:35;;;;;;;16.27;3.28;;;12.60;97.60;;;;;;5034317;28;20548;-64